createdAt,value
2019-03-09T00:01:14.253Z,15.87
2019-03-09T00:03:43.814Z,15.33
2019-03-09T00:06:13.667Z,17.00
2019-03-09T00:08:43.187Z,14.07
2019-03-09T00:11:12.691Z,14.87
2019-03-09T00:13:42.190Z,14.27
2019-03-09T00:16:11.684Z,17.27
2019-03-09T00:18:41.143Z,18.20
2019-03-09T00:21:10.645Z,15.03
2019-03-09T00:23:57.797Z,14.00
2019-03-09T00:26:55.534Z,14.40
2019-03-09T00:29:38.709Z,14.50
2019-03-09T00:32:11.026Z,14.50
2019-03-09T00:34:40.758Z,15.73
2019-03-09T00:37:10.255Z,20.97
2019-03-09T00:39:39.683Z,25.27
2019-03-09T00:42:09.185Z,23.20
2019-03-09T00:44:38.674Z,23.60
2019-03-09T00:47:08.429Z,24.43
2019-03-09T00:49:37.913Z,26.63
2019-03-09T00:52:07.441Z,28.53
2019-03-09T00:54:36.954Z,28.40
2019-03-09T00:57:06.447Z,28.40
2019-03-09T00:59:35.925Z,27.23
2019-03-09T01:02:05.367Z,26.43
2019-03-09T01:04:34.861Z,25.20
2019-03-09T01:07:04.341Z,26.30
2019-03-09T01:09:33.806Z,24.97
2019-03-09T01:12:03.317Z,24.03
2019-03-09T01:14:32.919Z,21.17
2019-03-09T01:17:02.410Z,21.03
2019-03-09T01:19:31.884Z,19.60
2019-03-09T01:22:01.365Z,17.20
2019-03-09T01:24:30.828Z,16.37
2019-03-09T01:27:00.346Z,15.73
2019-03-09T01:29:29.798Z,14.53
2019-03-09T01:31:59.284Z,14.63
2019-03-09T01:34:28.764Z,15.07
2019-03-09T01:36:58.230Z,15.87
2019-03-09T01:39:27.829Z,15.13
2019-03-09T01:41:57.369Z,15.60
2019-03-09T01:44:26.850Z,13.30
2019-03-09T01:46:56.350Z,15.07
2019-03-09T01:49:25.935Z,14.93
2019-03-09T01:51:55.429Z,16.43
2019-03-09T01:54:24.917Z,16.50
2019-03-09T01:56:54.424Z,17.00
2019-03-09T01:59:23.899Z,15.07
2019-03-09T02:01:53.422Z,15.53
2019-03-09T02:04:22.952Z,14.77
2019-03-09T02:06:52.407Z,14.37
2019-03-09T02:09:21.945Z,14.67
2019-03-09T02:11:51.457Z,15.03
2019-03-09T02:14:20.920Z,14.17
2019-03-09T02:16:50.511Z,13.33
2019-03-09T02:19:20.023Z,14.10
2019-03-09T02:21:49.537Z,13.50
2019-03-09T02:24:19.085Z,13.93
2019-03-09T02:26:48.597Z,14.00
2019-03-09T02:29:18.091Z,13.30
2019-03-09T02:31:47.593Z,13.43
2019-03-09T02:34:17.052Z,13.77
2019-03-09T02:36:46.557Z,13.63
2019-03-09T02:39:37.846Z,14.07
2019-03-09T02:42:07.325Z,13.20
2019-03-09T02:44:38.589Z,13.30
2019-03-09T02:47:08.107Z,13.50
2019-03-09T02:49:37.615Z,13.37
2019-03-09T02:52:07.239Z,13.10
2019-03-09T02:54:36.750Z,12.60
2019-03-09T02:57:06.240Z,11.60
2019-03-09T02:59:35.692Z,12.93
2019-03-09T03:02:22.808Z,12.83
2019-03-09T03:04:52.233Z,12.50
2019-03-09T03:07:21.727Z,11.70
2019-03-09T03:09:51.241Z,12.13
2019-03-09T03:12:20.667Z,13.33
2019-03-09T03:14:50.230Z,12.30
2019-03-09T03:17:19.731Z,11.17
2019-03-09T03:19:49.184Z,12.10
2019-03-09T03:22:18.672Z,12.80
2019-03-09T03:24:48.194Z,12.10
2019-03-09T03:27:17.676Z,12.10
2019-03-09T03:29:47.158Z,12.27
2019-03-09T03:32:16.735Z,11.70
2019-03-09T03:34:46.232Z,12.07
2019-03-09T03:37:15.689Z,11.73
2019-03-09T03:39:45.180Z,12.73
2019-03-09T03:42:14.636Z,11.60
2019-03-09T03:44:47.174Z,10.83
2019-03-09T03:47:17.592Z,11.50
2019-03-09T03:49:47.098Z,11.93
2019-03-09T03:52:16.661Z,11.93
2019-03-09T03:54:46.176Z,11.83
2019-03-09T03:57:15.650Z,11.77
2019-03-09T03:59:45.151Z,11.73
2019-03-09T04:02:14.717Z,11.30
2019-03-09T04:04:44.151Z,11.47
2019-03-09T04:07:14.166Z,11.63
2019-03-09T04:09:43.833Z,11.87
2019-03-09T04:12:13.664Z,12.37
2019-03-09T04:14:43.231Z,11.50
2019-03-09T04:17:12.738Z,11.53
2019-03-09T04:19:42.254Z,12.00
2019-03-09T04:22:11.804Z,12.10
2019-03-09T04:24:41.392Z,11.90
2019-03-09T04:27:10.868Z,11.77
2019-03-09T04:29:40.424Z,11.70
2019-03-09T04:32:09.934Z,11.90
2019-03-09T04:34:39.487Z,12.23
2019-03-09T04:37:08.977Z,11.43
2019-03-09T04:39:38.489Z,11.57
2019-03-09T04:42:07.975Z,11.83
2019-03-09T04:44:37.460Z,11.93
2019-03-09T04:47:06.938Z,12.20
2019-03-09T04:49:36.437Z,11.70
2019-03-09T04:52:05.933Z,12.33
2019-03-09T04:54:35.370Z,11.60
2019-03-09T04:57:04.872Z,11.63
2019-03-09T04:59:34.378Z,12.40
2019-03-09T05:02:03.906Z,12.67
2019-03-09T05:05:03.814Z,13.77
2019-03-09T05:07:54.711Z,12.10
2019-03-09T05:10:28.014Z,13.50
2019-03-09T05:13:00.785Z,12.73
2019-03-09T05:15:30.231Z,14.33
2019-03-09T05:17:59.722Z,13.30
2019-03-09T05:20:29.252Z,13.50
2019-03-09T05:22:58.789Z,12.93
2019-03-09T05:25:28.288Z,13.20
2019-03-09T05:27:57.847Z,12.40
2019-03-09T05:30:55.292Z,13.40
2019-03-09T05:33:24.773Z,11.90
2019-03-09T05:35:54.249Z,12.53
2019-03-09T05:38:23.743Z,11.80
2019-03-09T05:40:53.241Z,12.10
2019-03-09T05:43:22.735Z,11.80
2019-03-09T05:45:52.213Z,23.33
2019-03-09T05:48:21.702Z,13.50
2019-03-09T05:50:51.192Z,12.77
2019-03-09T05:53:22.348Z,14.13
2019-03-09T05:55:51.959Z,12.70
2019-03-09T05:58:21.454Z,12.60
2019-03-09T06:00:50.911Z,13.03
2019-03-09T06:03:20.384Z,12.80
2019-03-09T06:06:13.089Z,12.63
2019-03-09T06:08:42.892Z,12.03
2019-03-09T06:11:12.376Z,12.77
2019-03-09T06:13:41.933Z,12.20
2019-03-09T06:16:11.446Z,13.40
2019-03-09T06:18:40.966Z,13.67
2019-03-09T06:21:10.512Z,13.60
2019-03-09T06:23:40.011Z,14.40
2019-03-09T06:26:09.529Z,14.17
2019-03-09T06:28:39.084Z,15.00
2019-03-09T06:31:08.806Z,15.63
2019-03-09T06:33:39.281Z,15.63
2019-03-09T06:36:35.995Z,15.10
2019-03-09T06:39:17.078Z,15.40
2019-03-09T06:42:07.798Z,16.33
2019-03-09T06:44:37.293Z,15.30
2019-03-09T06:47:06.769Z,13.67
2019-03-09T06:49:36.268Z,13.50
2019-03-09T06:52:05.752Z,14.90
2019-03-09T06:54:35.243Z,15.43
2019-03-09T06:57:13.463Z,15.37
2019-03-09T06:59:36.009Z,15.57
2019-03-09T07:02:05.593Z,15.97
2019-03-09T07:04:35.092Z,15.60
2019-03-09T07:07:04.638Z,15.50
2019-03-09T07:09:34.134Z,15.40
2019-03-09T07:12:03.663Z,15.33
2019-03-09T07:15:16.323Z,15.67
2019-03-09T07:17:45.840Z,14.93
2019-03-09T07:20:15.461Z,14.47
2019-03-09T07:22:44.997Z,15.27
2019-03-09T07:25:14.575Z,15.43
2019-03-09T07:27:44.107Z,15.97
2019-03-09T07:30:18.033Z,15.20
2019-03-09T07:32:47.566Z,15.53
2019-03-09T07:35:17.048Z,15.87
2019-03-09T07:37:46.561Z,15.93
2019-03-09T07:40:16.371Z,16.00
2019-03-09T07:42:45.878Z,14.30
2019-03-09T07:45:15.672Z,14.47
2019-03-09T07:47:45.493Z,14.80
2019-03-09T07:50:15.170Z,11.87
2019-03-09T07:52:44.660Z,13.33
2019-03-09T07:55:15.035Z,13.27
2019-03-09T07:57:44.547Z,11.87
2019-03-09T08:00:18.594Z,12.30
2019-03-09T08:02:48.154Z,9.37
2019-03-09T08:05:17.953Z,9.37
2019-03-09T08:07:47.495Z,8.63
2019-03-09T08:10:21.932Z,7.40
2019-03-09T08:12:51.415Z,7.77
2019-03-09T08:15:22.363Z,7.90
2019-03-09T08:17:51.881Z,7.40
2019-03-09T08:20:25.851Z,7.10
2019-03-09T08:22:58.140Z,6.83
2019-03-09T08:25:28.724Z,6.30
2019-03-09T08:27:58.255Z,5.80
2019-03-09T08:30:27.935Z,6.03
2019-03-09T08:32:57.842Z,6.03
2019-03-09T08:35:27.299Z,5.40
2019-03-09T08:37:56.820Z,4.93
2019-03-09T08:40:26.320Z,5.33
2019-03-09T08:42:55.871Z,4.47
2019-03-09T08:45:25.381Z,4.20
2019-03-09T08:47:54.862Z,4.77
2019-03-09T08:50:24.411Z,4.57
2019-03-09T08:52:53.895Z,4.83
2019-03-09T08:55:23.421Z,4.40
2019-03-09T08:57:52.930Z,4.43
2019-03-09T09:00:29.915Z,4.43
2019-03-09T09:02:58.917Z,4.03
2019-03-09T09:05:28.380Z,4.73
2019-03-09T09:07:57.891Z,4.33
2019-03-09T09:10:27.416Z,3.77
2019-03-09T09:12:56.876Z,4.20
2019-03-09T09:15:29.122Z,3.43
2019-03-09T09:17:58.664Z,3.67
2019-03-09T09:20:28.204Z,3.67
2019-03-09T09:22:57.714Z,3.97
2019-03-09T09:25:27.222Z,3.60
2019-03-09T09:27:56.834Z,3.50
2019-03-09T09:30:27.441Z,3.37
2019-03-09T09:32:57.095Z,3.60
2019-03-09T09:35:27.067Z,3.30
2019-03-09T09:37:56.517Z,3.17
2019-03-09T09:40:26.181Z,2.93
2019-03-09T09:42:55.767Z,3.30
2019-03-09T09:45:25.643Z,3.83
2019-03-09T09:47:55.126Z,3.77
2019-03-09T09:50:24.650Z,3.70
2019-03-09T09:52:54.219Z,3.07
2019-03-09T09:55:23.800Z,3.30
2019-03-09T09:57:53.365Z,3.20
2019-03-09T10:00:24.644Z,3.50
2019-03-09T10:02:54.171Z,3.83
2019-03-09T10:05:23.770Z,3.43
2019-03-09T10:07:53.278Z,3.63
2019-03-09T10:10:22.901Z,2.97
2019-03-09T10:12:52.708Z,3.23
2019-03-09T10:15:24.175Z,2.90
2019-03-09T10:17:53.703Z,3.20
2019-03-09T10:20:23.239Z,3.10
2019-03-09T10:23:03.100Z,3.50
2019-03-09T10:25:24.007Z,3.40
2019-03-09T10:27:53.630Z,3.00
2019-03-09T10:30:23.165Z,3.40
2019-03-09T10:32:52.859Z,3.10
2019-03-09T10:35:22.394Z,2.87
2019-03-09T10:37:51.905Z,2.83
2019-03-09T10:40:21.634Z,3.47
2019-03-09T10:42:51.115Z,3.40
2019-03-09T10:45:20.640Z,3.20
2019-03-09T10:47:50.242Z,3.50
2019-03-09T10:50:19.988Z,3.10
2019-03-09T10:52:49.718Z,3.27
2019-03-09T10:55:25.410Z,3.10
2019-03-09T10:57:54.957Z,3.40
2019-03-09T11:00:27.141Z,3.37
2019-03-09T11:02:58.591Z,3.87
2019-03-09T11:05:31.199Z,3.47
2019-03-09T11:08:02.112Z,3.40
2019-03-09T11:10:31.586Z,4.10
2019-03-09T11:13:01.296Z,3.77
2019-03-09T11:15:30.896Z,4.30
2019-03-09T11:18:00.499Z,4.00
2019-03-09T11:20:32.832Z,3.67
2019-03-09T11:23:02.658Z,4.03
2019-03-09T11:25:32.179Z,4.10
2019-03-09T11:28:12.500Z,4.43
2019-03-09T11:30:42.046Z,3.40
2019-03-09T11:33:11.605Z,3.80
2019-03-09T11:35:41.120Z,3.87
2019-03-09T11:38:10.656Z,4.27
2019-03-09T11:40:40.130Z,4.40
2019-03-09T11:43:09.649Z,3.73
2019-03-09T11:45:39.190Z,4.57
2019-03-09T11:48:08.767Z,5.27
2019-03-09T11:50:38.318Z,4.50
2019-03-09T11:53:07.796Z,4.10
2019-03-09T11:55:37.349Z,3.80
2019-03-09T11:58:06.863Z,4.07
2019-03-09T12:00:37.291Z,4.27
2019-03-09T12:03:06.835Z,4.40
2019-03-09T12:05:36.370Z,4.00
2019-03-09T12:08:05.908Z,4.27
2019-03-09T12:10:35.437Z,3.90
2019-03-09T12:13:04.987Z,4.87
2019-03-09T12:15:34.544Z,5.23
2019-03-09T12:18:04.070Z,3.63
2019-03-09T12:20:33.571Z,3.60
2019-03-09T12:23:19.415Z,4.60
2019-03-09T12:25:48.957Z,4.73
2019-03-09T12:28:18.447Z,3.60
2019-03-09T12:30:47.972Z,3.93
2019-03-09T12:33:17.502Z,3.97
2019-03-09T12:35:47.016Z,4.63
2019-03-09T12:38:16.577Z,3.73
2019-03-09T12:40:46.111Z,3.90
2019-03-09T12:43:15.629Z,4.07
2019-03-09T12:45:45.098Z,4.30
2019-03-09T12:48:14.605Z,3.70
2019-03-09T12:50:44.136Z,3.47
2019-03-09T12:53:14.305Z,3.30
2019-03-09T12:55:43.775Z,3.40
2019-03-09T12:58:13.290Z,3.63
2019-03-09T13:00:42.774Z,3.93
2019-03-09T13:03:12.416Z,4.00
2019-03-09T13:05:42.012Z,4.47
2019-03-09T13:08:11.504Z,3.80
2019-03-09T13:10:41.081Z,3.63
2019-03-09T13:13:10.588Z,3.43
2019-03-09T13:15:40.127Z,2.77
2019-03-09T13:18:09.689Z,3.17
2019-03-09T13:20:39.207Z,3.10
2019-03-09T13:23:08.747Z,3.00
2019-03-09T13:25:38.809Z,3.33
2019-03-09T13:28:08.494Z,3.00
2019-03-09T13:30:37.995Z,4.00
2019-03-09T13:33:07.561Z,2.80
2019-03-09T13:35:37.068Z,3.60
2019-03-09T13:38:06.573Z,3.40
2019-03-09T13:40:36.023Z,3.70
2019-03-09T13:43:05.565Z,3.13
2019-03-09T13:45:35.108Z,3.40
2019-03-09T13:48:04.634Z,3.20
2019-03-09T13:50:34.107Z,3.70
2019-03-09T13:53:03.636Z,3.73
2019-03-09T13:55:33.103Z,4.00
2019-03-09T13:58:02.654Z,3.40
2019-03-09T14:00:40.145Z,3.33
2019-03-09T14:03:03.710Z,3.13
2019-03-09T14:05:33.323Z,3.10
2019-03-09T14:08:02.824Z,3.23
2019-03-09T14:10:32.497Z,3.30
2019-03-09T14:13:02.042Z,3.53
2019-03-09T14:15:31.609Z,2.97
2019-03-09T14:18:01.125Z,3.77
2019-03-09T14:20:30.646Z,3.07
2019-03-09T14:23:00.243Z,3.30
2019-03-09T14:25:29.754Z,3.33
2019-03-09T14:27:59.251Z,3.07
2019-03-09T14:30:28.804Z,3.30
2019-03-09T14:32:58.256Z,3.40
2019-03-09T14:35:27.798Z,2.90
2019-03-09T14:37:57.364Z,3.53
2019-03-09T14:40:26.813Z,3.33
2019-03-09T14:42:56.359Z,3.07
2019-03-09T14:45:25.900Z,3.37
2019-03-09T14:47:55.413Z,2.90
2019-03-09T14:50:24.879Z,3.17
2019-03-09T14:52:54.377Z,3.17
2019-03-09T14:55:23.907Z,3.27
2019-03-09T14:57:53.411Z,3.53
2019-03-09T15:00:22.911Z,2.90
2019-03-09T15:02:52.483Z,3.23
2019-03-09T15:05:22.053Z,3.57
2019-03-09T15:07:51.719Z,3.17
2019-03-09T15:10:21.262Z,3.20
2019-03-09T15:12:50.951Z,3.37
2019-03-09T15:15:20.582Z,3.00
2019-03-09T15:17:50.039Z,3.40
2019-03-09T15:20:19.568Z,3.37
2019-03-09T15:22:49.033Z,3.33
2019-03-09T15:25:18.632Z,3.03
2019-03-09T15:27:48.507Z,3.00
2019-03-09T15:30:18.248Z,3.10
2019-03-09T15:32:47.770Z,3.03
2019-03-09T15:35:17.280Z,3.37
2019-03-09T15:37:46.878Z,2.70
2019-03-09T15:40:17.767Z,3.50
2019-03-09T15:42:47.286Z,3.70
2019-03-09T15:45:17.023Z,3.97
2019-03-09T15:47:46.763Z,3.80
2019-03-09T15:50:16.703Z,3.40
2019-03-09T15:52:46.252Z,4.23
2019-03-09T15:55:16.149Z,4.00
2019-03-09T15:57:48.168Z,4.83
2019-03-09T16:00:18.972Z,3.93
2019-03-09T16:02:48.577Z,3.60
2019-03-09T16:05:18.313Z,6.40
2019-03-09T16:07:47.825Z,5.03
2019-03-09T16:10:17.467Z,4.17
2019-03-09T16:12:46.954Z,4.70
2019-03-09T16:15:16.888Z,5.50
2019-03-09T16:17:46.454Z,5.37
2019-03-09T16:20:16.739Z,4.67
2019-03-09T16:22:46.285Z,5.93
2019-03-09T16:25:16.048Z,5.87
2019-03-09T16:27:45.553Z,6.43
2019-03-09T16:30:18.685Z,6.63
2019-03-09T16:32:48.317Z,4.50
2019-03-09T16:35:17.886Z,4.67
2019-03-09T16:37:47.436Z,4.70
2019-03-09T16:40:17.021Z,4.70
2019-03-09T16:42:46.616Z,4.30
2019-03-09T16:45:16.420Z,4.57
2019-03-09T16:47:46.010Z,4.50
2019-03-09T16:50:15.659Z,4.60
2019-03-09T16:52:45.639Z,4.80
2019-03-09T16:55:15.241Z,4.60
2019-03-09T16:57:44.746Z,4.80
2019-03-09T17:00:16.780Z,5.00
2019-03-09T17:02:46.387Z,4.50
2019-03-09T17:05:16.047Z,4.53
2019-03-09T17:07:45.558Z,4.93
2019-03-09T17:10:15.389Z,5.10
2019-03-09T17:12:44.989Z,4.97
2019-03-09T17:15:15.125Z,4.57
2019-03-09T17:17:45.148Z,5.13
2019-03-09T17:20:15.224Z,6.20
2019-03-09T17:22:44.849Z,6.13
2019-03-09T17:25:15.065Z,5.93
2019-03-09T17:27:44.991Z,6.73
2019-03-09T17:30:16.300Z,6.07
2019-03-09T17:32:45.801Z,6.47
2019-03-09T17:35:15.333Z,7.53
2019-03-09T17:37:44.967Z,9.00
2019-03-09T17:40:14.615Z,6.23
2019-03-09T17:42:44.094Z,5.83
2019-03-09T17:45:16.169Z,5.60
2019-03-09T17:47:45.691Z,5.70
2019-03-09T17:50:15.400Z,5.77
2019-03-09T17:52:45.051Z,5.63
2019-03-09T17:55:14.569Z,5.60
2019-03-09T17:57:44.151Z,5.20
2019-03-09T18:00:16.302Z,6.93
2019-03-09T18:02:45.867Z,7.27
2019-03-09T18:05:15.422Z,8.17
2019-03-09T18:07:44.928Z,8.53
2019-03-09T18:10:35.063Z,8.40
2019-03-09T18:13:04.638Z,8.00
2019-03-09T18:15:34.146Z,7.87
2019-03-09T18:18:03.765Z,7.20
2019-03-09T18:20:33.271Z,8.00
2019-03-09T18:23:02.860Z,7.80
2019-03-09T18:25:32.368Z,8.30
2019-03-09T18:28:01.945Z,6.90
2019-03-09T18:30:31.462Z,7.87
2019-03-09T18:33:01.022Z,8.70
2019-03-09T18:35:30.602Z,8.13
2019-03-09T18:38:00.202Z,7.63
2019-03-09T18:40:29.737Z,7.80
2019-03-09T18:42:59.249Z,8.07
2019-03-09T18:45:28.779Z,7.57
2019-03-09T18:47:58.334Z,7.70
2019-03-09T18:50:27.843Z,9.77
2019-03-09T18:52:57.346Z,7.80
2019-03-09T18:55:26.888Z,8.77
2019-03-09T18:57:56.399Z,8.63
2019-03-09T19:00:25.907Z,8.80
2019-03-09T19:02:55.496Z,7.40
2019-03-09T19:05:26.281Z,6.73
2019-03-09T19:07:55.800Z,8.03
2019-03-09T19:10:25.326Z,8.97
2019-03-09T19:12:54.771Z,7.93
2019-03-09T19:15:24.258Z,7.67
2019-03-09T19:17:53.861Z,6.83
2019-03-09T19:20:23.495Z,6.93
2019-03-09T19:22:53.019Z,7.57
2019-03-09T19:25:22.662Z,9.07
2019-03-09T19:27:52.221Z,9.63
2019-03-09T19:30:21.685Z,9.40
2019-03-09T19:32:59.813Z,25.83
2019-03-09T19:35:22.417Z,26.20
2019-03-09T19:37:51.874Z,19.03
2019-03-09T19:40:21.403Z,16.23
2019-03-09T19:42:50.992Z,16.43
2019-03-09T19:45:20.479Z,14.53
2019-03-09T19:47:50.039Z,15.83
2019-03-09T19:50:19.623Z,11.60
2019-03-09T19:52:49.237Z,12.17
2019-03-09T19:55:18.883Z,10.83
2019-03-09T19:57:48.381Z,9.07
2019-03-09T20:00:17.999Z,9.90
2019-03-09T20:02:47.509Z,9.07
2019-03-09T20:05:17.103Z,9.60
2019-03-09T20:07:46.596Z,11.13
2019-03-09T20:10:16.263Z,10.97
2019-03-09T20:12:45.760Z,11.33
2019-03-09T20:15:15.756Z,12.50
2019-03-09T20:17:45.941Z,22.60
2019-03-09T20:20:15.953Z,22.60
2019-03-09T20:22:45.518Z,18.17
2019-03-09T20:25:15.035Z,16.40
2019-03-09T20:27:44.602Z,15.07
2019-03-09T20:30:14.986Z,14.40
2019-03-09T20:32:44.514Z,13.37
2019-03-09T20:35:14.137Z,13.73
2019-03-09T20:37:43.721Z,11.43
2019-03-09T20:40:13.658Z,10.63
2019-03-09T20:42:43.179Z,11.50
2019-03-09T20:45:14.662Z,10.77
2019-03-09T20:47:44.453Z,10.73
2019-03-09T20:50:14.941Z,10.77
2019-03-09T20:52:44.506Z,12.00
2019-03-09T20:55:14.008Z,11.87
2019-03-09T20:57:43.528Z,10.73
2019-03-09T21:00:15.133Z,12.10
2019-03-09T21:02:44.643Z,11.73
2019-03-09T21:05:14.425Z,11.47
2019-03-09T21:07:44.014Z,12.57
2019-03-09T21:10:14.779Z,11.80
2019-03-09T21:13:04.983Z,12.10
2019-03-09T21:15:34.475Z,12.77
2019-03-09T21:18:03.999Z,12.87
2019-03-09T21:20:33.504Z,13.17
2019-03-09T21:23:03.171Z,13.50
2019-03-09T21:25:32.779Z,12.50
2019-03-09T21:28:02.261Z,11.33
2019-03-09T21:30:31.743Z,13.07
2019-03-09T21:33:01.224Z,12.00
2019-03-09T21:35:30.757Z,11.57
2019-03-09T21:38:00.406Z,11.43
2019-03-09T21:40:30.017Z,13.20
2019-03-09T21:42:59.569Z,13.30
2019-03-09T21:45:29.160Z,13.57
2019-03-09T21:47:58.663Z,12.30
2019-03-09T21:50:28.173Z,11.30
2019-03-09T21:52:57.666Z,12.37
2019-03-09T21:55:27.159Z,12.03
2019-03-09T21:57:56.680Z,10.83
2019-03-09T22:00:26.306Z,11.37
2019-03-09T22:02:55.794Z,10.63
2019-03-09T22:05:25.340Z,11.10
2019-03-09T22:07:55.846Z,9.83
2019-03-09T22:10:25.568Z,9.60
2019-03-09T22:12:55.082Z,10.33
2019-03-09T22:15:24.598Z,10.43
2019-03-09T22:17:54.063Z,9.70
2019-03-09T22:20:23.572Z,8.53
2019-03-09T22:22:53.057Z,8.97
2019-03-09T22:25:22.544Z,8.43
2019-03-09T22:27:52.100Z,6.33
2019-03-09T22:30:21.639Z,7.30
2019-03-09T22:32:51.191Z,6.97
2019-03-09T22:35:20.654Z,6.73
2019-03-09T22:37:50.113Z,6.40
2019-03-09T22:40:19.651Z,7.87
2019-03-09T22:42:49.085Z,8.13
2019-03-09T22:45:18.574Z,7.37
2019-03-09T22:47:48.096Z,8.17
2019-03-09T22:50:17.728Z,7.90
2019-03-09T22:52:47.195Z,7.30
2019-03-09T22:55:16.791Z,7.43
2019-03-09T22:57:46.290Z,7.87
2019-03-09T23:00:17.779Z,7.63
2019-03-09T23:02:47.291Z,7.33
2019-03-09T23:05:17.105Z,7.00
2019-03-09T23:07:46.576Z,7.13
2019-03-09T23:10:16.908Z,7.03
2019-03-09T23:12:46.394Z,5.90
2019-03-09T23:15:16.397Z,5.60
2019-03-09T23:17:46.141Z,5.70
2019-03-09T23:20:16.940Z,6.07
2019-03-09T23:22:46.443Z,5.77
2019-03-09T23:25:16.683Z,6.10
2019-03-09T23:27:46.198Z,4.73
2019-03-09T23:30:16.890Z,4.93
2019-03-09T23:32:46.432Z,5.40
2019-03-09T23:35:16.438Z,5.20
2019-03-09T23:37:46.326Z,6.03
2019-03-09T23:40:16.516Z,5.40
2019-03-09T23:42:46.015Z,5.50
2019-03-09T23:45:16.470Z,5.43
2019-03-09T23:47:46.118Z,6.10
2019-03-09T23:50:16.182Z,5.73
2019-03-09T23:52:46.084Z,5.10
2019-03-09T23:55:22.442Z,5.53
2019-03-09T23:57:48.416Z,5.13
